Time;durP1;ratioP1;P1;durP2;ratioP2;P2;SDS_P1;SDS_P2;PMS_P1;PMS_P2;Temp;Humidity;BMP_temperature;BMP_pressure;BME280_temperature;BME280_humidity;BME280_pressure;Samples;Min_cycle;Max_cycle;Signal;HPM_P1;HPM_P2
2020/12/04 00:02:13;;;;;;;4.32;3.90;;;;;;;4.78;79.07;96286.16;4942792;28;20738;-86
2020/12/04 00:04:47;;;;;;;4.97;4.10;;;;;;;4.82;79.37;96282.22;5629983;23;20319;31
2020/12/04 00:07:13;;;;;;;5.20;4.50;;;;;;;4.73;79.67;96275.06;4916753;28;20733;-80
2020/12/04 00:09:44;;;;;;;6.43;4.55;;;;;;;4.66;80.57;96268.59;4902764;28;22745;-84
2020/12/04 00:12:10;;;;;;;6.57;5.47;;;;;;;4.61;81.31;96257.50;4954413;28;20732;-85
2020/12/04 00:14:36;;;;;;;5.20;4.70;;;;;;;4.52;81.59;96244.16;4938172;28;20239;-84
2020/12/04 00:17:02;;;;;;;6.65;5.32;;;;;;;4.53;82.10;96241.38;4934491;28;20311;-85
2020/12/04 00:19:28;;;;;;;4.97;4.57;;;;;;;4.58;81.39;96233.84;4921764;28;20232;-87
2020/12/04 00:21:55;;;;;;;6.40;5.57;;;;;;;4.41;82.49;96237.13;4950913;28;20316;-84
2020/12/04 00:24:24;;;;;;;4.97;4.45;;;;;;;4.52;81.47;96229.03;4939972;29;20204;-84
2020/12/04 00:26:51;;;;;;;5.78;4.80;;;;;;;4.44;82.08;96230.69;4931804;29;20244;-84
2020/12/04 00:29:17;;;;;;;6.18;4.82;;;;;;;4.62;81.03;96218.44;4950657;28;20243;-86
2020/12/04 00:31:43;;;;;;;6.32;5.10;;;;;;;4.40;82.32;96219.47;4938862;28;20224;-89
2020/12/04 00:34:11;;;;;;;6.18;5.38;;;;;;;4.38;82.35;96200.16;5032242;23;20249;-88
2020/12/04 00:36:49;;;;;;;6.70;5.50;;;;;;;4.40;82.44;96206.19;4981412;28;20207;-86
2020/12/04 00:39:16;;;;;;;5.80;5.20;;;;;;;4.38;82.70;96202.81;4957824;28;20216;-86
2020/12/04 00:41:43;;;;;;;5.88;4.65;;;;;;;4.30;83.01;96196.47;4954565;28;20242;-85
2020/12/04 00:44:11;;;;;;;6.45;4.80;;;;;;;4.34;83.17;96188.09;4959609;28;20273;-87
2020/12/04 00:46:38;;;;;;;7.35;5.40;;;;;;;4.35;83.50;96179.13;4968025;28;20287;-85
2020/12/04 00:49:07;;;;;;;5.93;5.32;;;;;;;4.37;83.01;96174.50;4983324;28;20231;-90
2020/12/04 00:51:39;;;;;;;7.10;4.85;;;;;;;4.37;82.53;96165.72;4986665;28;20216;-86
2020/12/04 00:54:07;;;;;;;5.22;4.40;;;;;;;4.38;82.76;96170.06;4960118;28;20216;-85
2020/12/04 00:56:35;;;;;;;8.65;4.45;;;;;;;4.57;81.74;96152.31;4957663;28;20330;-88
2020/12/04 00:59:11;;;;;;;6.45;4.75;;;;;;;4.46;81.66;96147.13;4956724;28;20222;-83
2020/12/04 01:01:39;;;;;;;6.10;4.65;;;;;;;4.43;81.67;96142.06;4972684;28;20224;-84
2020/12/04 01:04:06;;;;;;;7.53;5.43;;;;;;;4.47;81.71;96134.66;4961176;28;20231;-81
2020/12/04 01:06:32;;;;;;;5.00;4.50;;;;;;;4.47;82.02;96132.84;4977727;28;20199;-81
2020/12/04 01:08:58;;;;;;;5.05;4.43;;;;;;;4.52;81.31;96122.63;4976714;28;20233;-81
2020/12/04 01:11:26;;;;;;;7.05;4.88;;;;;;;4.52;81.36;96130.63;4953743;28;20235;-80
2020/12/04 01:13:52;;;;;;;5.55;4.50;;;;;;;4.56;80.88;96124.03;4952180;28;20227;-81
2020/12/04 01:16:18;;;;;;;5.95;4.57;;;;;;;4.57;80.67;96120.38;4959576;28;20245;-81
2020/12/04 01:18:44;;;;;;;5.10;4.60;;;;;;;4.57;81.22;96120.38;4964330;28;20238;-82
2020/12/04 01:21:15;;;;;;;5.68;4.70;;;;;;;4.57;80.40;96114.25;4972786;28;20199;-79
2020/12/04 01:23:42;;;;;;;6.05;4.75;;;;;;;4.66;79.87;96116.06;4952974;28;20231;-78
2020/12/04 01:26:08;;;;;;;5.10;4.60;;;;;;;4.67;80.03;96112.41;4953827;28;20247;-80
2020/12/04 01:28:35;;;;;;;4.65;4.00;;;;;;;4.69;80.27;96108.66;4941452;28;20235;-79
2020/12/04 01:31:01;;;;;;;5.45;4.55;;;;;;;4.76;80.54;96114.28;4985801;28;20267;-80
2020/12/04 01:33:27;;;;;;;5.68;4.55;;;;;;;4.78;80.11;96110.50;4976481;28;20266;-78
2020/12/04 01:35:53;;;;;;;5.38;4.55;;;;;;;4.85;79.65;96116.94;4975421;28;20187;-80
2020/12/04 01:38:19;;;;;;;6.32;4.68;;;;;;;4.86;79.66;96107.13;4964147;28;20280;-79
2020/12/04 01:40:45;;;;;;;7.03;5.15;;;;;;;4.87;79.79;96109.66;4978478;28;20221;-79
2020/12/04 01:43:11;;;;;;;6.18;5.25;;;;;;;4.88;79.43;96119.31;4978624;28;20203;-79
2020/12/04 01:45:37;;;;;;;7.20;4.80;;;;;;;4.91;79.55;96113.72;4994546;28;20247;-79
2020/12/04 01:48:05;;;;;;;7.28;5.13;;;;;;;4.90;79.72;96112.06;4972891;28;20176;-82
2020/12/04 01:50:31;;;;;;;5.90;5.05;;;;;;;4.91;79.65;96116.38;4968052;28;20226;-81
2020/12/04 01:52:58;;;;;;;5.88;4.35;;;;;;;4.99;79.65;96116.53;4990725;28;20223;-85
2020/12/04 01:55:25;;;;;;;8.55;5.15;;;;;;;4.97;79.01;96121.16;4976663;28;20219;-83
2020/12/04 01:57:55;;;;;;;4.70;4.10;;;;;;;5.02;79.27;96116.25;4983848;28;20272;-83
2020/12/04 02:00:22;;;;;;;6.35;4.05;;;;;;;5.09;79.22;96116.53;4957138;29;20244;-83
2020/12/04 02:02:49;;;;;;;5.55;4.40;;;;;;;5.08;79.08;96113.00;4961103;28;20235;-83
2020/12/04 02:05:15;;;;;;;5.78;4.53;;;;;;;5.09;78.94;96106.72;4977121;28;20394;-83
2020/12/04 02:07:52;;;;;;;4.95;4.35;;;;;;;5.11;79.70;96109.22;4961864;28;20246;-83
2020/12/04 02:10:36;;;;;;;5.65;4.32;;;;;;;5.02;78.92;96102.09;4973660;28;20238;-82
2020/12/04 02:13:02;;;;;;;4.72;4.28;;;;;;;5.03;79.44;96101.97;4947860;28;20211;-84
2020/12/04 02:15:29;;;;;;;5.70;4.65;;;;;;;5.05;79.35;96099.16;4966642;28;20207;-84
2020/12/04 02:17:56;;;;;;;4.88;4.07;;;;;;;5.08;79.05;96094.38;4972362;28;20199;-81
2020/12/04 02:20:23;;;;;;;5.90;4.43;;;;;;;5.12;79.28;96095.78;4989541;28;20230;-85
2020/12/04 02:22:49;;;;;;;4.60;4.20;;;;;;;5.14;79.98;96087.66;4983152;28;20231;-85
2020/12/04 02:25:15;;;;;;;5.40;4.90;;;;;;;5.08;80.17;96089.03;4998240;28;20207;-84
2020/12/04 02:27:48;;;;;;;5.60;4.95;;;;;;;5.06;80.39;96091.03;4980331;28;20202;-81
2020/12/04 02:30:22;;;;;;;5.88;4.55;;;;;;;5.13;80.94;96088.66;4951429;28;20228;-81
2020/12/04 02:32:48;;;;;;;6.38;4.60;;;;;;;5.17;80.86;96084.72;4946409;28;20227;-80
2020/12/04 02:35:14;;;;;;;5.78;4.47;;;;;;;5.19;80.74;96085.44;4960367;28;20227;-80
2020/12/04 02:37:40;;;;;;;6.10;4.97;;;;;;;5.15;81.81;96079.53;4976081;28;20231;-81
2020/12/04 02:40:06;;;;;;;5.38;4.43;;;;;;;5.26;81.37;96071.38;4968587;28;20308;-82
2020/12/04 02:42:32;;;;;;;6.38;5.30;;;;;;;5.58;79.09;96077.19;4970114;28;20188;-84
2020/12/04 02:44:58;;;;;;;4.45;4.05;;;;;;;5.66;78.02;96080.00;4984124;28;20210;-84
2020/12/04 02:47:27;;;;;;;4.70;4.20;;;;;;;5.68;77.17;96084.19;4977058;28;20273;-80
2020/12/04 02:49:54;;;;;;;5.28;4.15;;;;;;;5.62;77.97;96086.59;4970663;28;20218;-84
2020/12/04 02:52:23;;;;;;;5.57;4.20;;;;;;;5.61;77.77;96079.59;4973821;28;20250;-82
2020/12/04 02:54:49;;;;;;;4.65;4.10;;;;;;;5.68;76.60;96081.53;4938369;28;20223;-81
2020/12/04 02:57:15;;;;;;;4.45;3.67;;;;;;;5.67;77.30;96080.84;4970291;28;20210;-83
2020/12/04 02:59:42;;;;;;;4.68;4.18;;;;;;;5.67;77.44;96083.50;4971571;28;20227;-81
2020/12/04 03:02:10;;;;;;;4.75;4.15;;;;;;;5.58;79.00;96076.38;4963054;28;20831;-84
2020/12/04 03:04:39;;;;;;;4.57;4.13;;;;;;;5.58;79.19;96079.88;4963359;28;20682;-82
2020/12/04 03:07:05;;;;;;;5.72;4.65;;;;;;;5.59;78.99;96076.22;4963618;28;20722;-81
2020/12/04 03:09:33;;;;;;;5.43;4.65;;;;;;;5.63;79.21;96064.28;4982711;28;20230;-82
2020/12/04 03:11:59;;;;;;;4.80;4.05;;;;;;;5.68;78.34;96069.19;4966735;28;20199;-82
2020/12/04 03:14:25;;;;;;;4.40;4.00;;;;;;;5.65;78.55;96059.66;4982827;28;20223;-81
2020/12/04 03:16:53;;;;;;;5.15;4.25;;;;;;;5.67;78.24;96060.38;4979804;28;20230;-81
2020/12/04 03:19:19;;;;;;;4.88;4.20;;;;;;;5.65;78.77;96054.31;4948039;28;20227;-82
2020/12/04 03:21:45;;;;;;;5.32;4.35;;;;;;;5.61;79.52;96050.28;4958798;28;20227;-83
2020/12/04 03:24:12;;;;;;;4.97;4.13;;;;;;;5.66;78.66;96045.38;4965304;28;20633;-82
2020/12/04 03:26:38;;;;;;;4.78;4.05;;;;;;;5.65;79.21;96043.66;4960708;28;20245;-81
2020/12/04 03:29:05;;;;;;;5.05;4.10;;;;;;;5.57;79.63;96032.06;4959589;28;20226;-81
2020/12/04 03:31:31;;;;;;;5.70;4.20;;;;;;;5.61;80.19;96026.31;4978584;28;20223;-82
2020/12/04 03:33:57;;;;;;;5.55;4.65;;;;;;;5.45;81.12;96018.06;4963858;28;20257;-81
2020/12/04 03:36:25;;;;;;;4.72;4.28;;;;;;;5.63;79.62;96019.00;4961816;28;20210;-83
2020/12/04 03:38:51;;;;;;;4.55;3.70;;;;;;;5.77;78.67;96013.19;4966183;29;20200;-82
2020/12/04 03:41:29;;;;;;;4.05;3.53;;;;;;;5.72;79.24;96010.97;4982436;28;20222;-84
2020/12/04 03:43:55;;;;;;;4.07;3.55;;;;;;;5.59;80.47;96004.25;4994268;28;20221;-83
2020/12/04 03:46:26;;;;;;;5.10;4.45;;;;;;;5.70;80.39;96006.75;4964011;28;20223;-81
2020/12/04 03:48:53;;;;;;;4.78;4.00;;;;;;;5.63;80.41;96007.47;4951863;28;20223;-82
2020/12/04 03:51:19;;;;;;;4.50;4.03;;;;;;;5.54;80.54;96003.03;4961061;28;20200;-82
2020/12/04 03:53:47;;;;;;;5.50;4.05;;;;;;;5.66;80.56;96008.06;4960707;28;20227;-82
2020/12/04 03:56:16;;;;;;;4.18;3.78;;;;;;;5.68;79.70;95994.56;4958932;28;20278;-82
2020/12/04 03:58:43;;;;;;;4.88;3.92;;;;;;;5.88;78.80;95997.03;4967970;28;20301;-81
2020/12/04 04:01:10;;;;;;;4.20;3.45;;;;;;;5.79;80.02;95997.91;4943366;28;20768;-82
2020/12/04 04:03:36;;;;;;;5.00;3.55;;;;;;;5.84;79.48;95992.97;4972925;28;20192;-85
2020/12/04 04:06:03;;;;;;;4.03;3.63;;;;;;;5.93;78.18;95998.25;5074902;23;20235;-81
2020/12/04 04:08:29;;;;;;;3.92;3.40;;;;;;;5.91;77.61;95998.56;4954014;28;20234;-86
2020/12/04 04:10:58;;;;;;;4.53;3.70;;;;;;;5.82;78.70;95997.63;4987722;28;20216;-83
2020/12/04 04:13:24;;;;;;;3.83;3.47;;;;;;;5.97;77.98;96000.66;4978298;28;20231;-84
2020/12/04 04:15:51;;;;;;;4.72;4.20;;;;;;;5.94;76.97;95996.44;4992362;23;20270;-81
2020/12/04 04:18:17;;;;;;;5.65;4.20;;;;;;;5.86;77.18;95982.16;4964500;28;20211;-83
2020/12/04 04:20:44;;;;;;;4.97;3.50;;;;;;;6.13;76.40;95988.34;4976777;28;20223;-82
2020/12/04 04:23:10;;;;;;;5.60;3.72;;;;;;;5.93;76.83;95987.59;4961274;28;20228;-81
2020/12/04 04:25:36;;;;;;;5.43;4.05;;;;;;;6.00;77.12;95991.34;4991759;28;20649;-82
2020/12/04 04:28:02;;;;;;;4.50;3.90;;;;;;;6.28;75.12;96008.16;4987893;28;20236;-82
2020/12/04 04:30:28;;;;;;;4.57;3.80;;;;;;;6.26;73.90;95994.16;4962416;28;20254;-82
2020/12/04 04:32:55;;;;;;;4.72;3.80;;;;;;;6.42;73.66;95999.66;4951676;28;20190;-82
2020/12/04 04:35:21;;;;;;;5.07;3.90;;;;;;;6.38;73.14;96009.78;4954199;28;20258;-82
2020/12/04 04:37:47;;;;;;;4.78;4.10;;;;;;;6.42;73.30;96007.66;4954729;28;20239;-82
2020/12/04 04:40:13;;;;;;;5.65;4.55;;;;;;;6.53;72.43;96007.44;4950879;28;20461;-81
2020/12/04 04:42:39;;;;;;;4.93;3.83;;;;;;;6.45;73.13;96012.69;4951230;28;20192;-81
2020/12/04 04:45:05;;;;;;;4.60;3.95;;;;;;;6.50;73.38;96023.78;4951991;28;20291;-82
2020/12/04 04:47:35;;;;;;;5.80;4.57;;;;;;;6.53;72.89;96026.97;4956790;28;20647;-82
2020/12/04 04:50:01;;;;;;;4.40;4.00;;;;;;;6.59;72.47;96022.84;4952735;28;20270;-82
2020/12/04 04:52:28;;;;;;;4.88;3.92;;;;;;;6.45;73.35;96010.84;4958092;28;20237;-82
2020/12/04 04:54:54;;;;;;;4.40;3.92;;;;;;;6.50;73.71;96023.78;4958195;28;20636;-82
2020/12/04 04:57:23;;;;;;;4.43;3.55;;;;;;;6.59;73.72;96020.19;4948732;29;20196;-82
2020/12/04 04:59:54;;;;;;;5.00;3.83;;;;;;;6.52;74.04;96021.78;4959070;28;20215;-82
2020/12/04 05:02:22;;;;;;;5.32;3.70;;;;;;;6.54;74.24;96030.47;4951795;28;20636;-82
2020/12/04 05:04:56;;;;;;;3.75;3.33;;;;;;;6.50;74.69;96026.44;4966964;28;20223;-81
2020/12/04 05:07:29;;;;;;;3.65;3.30;;;;;;;6.42;75.11;96026.31;4960859;28;20235;-81
2020/12/04 05:10:18;;;;;;;4.88;3.08;;;;;;;6.50;74.82;96023.78;4945575;28;20235;-83
2020/12/04 05:13:01;;;;;;;4.40;3.33;;;;;;;6.47;76.00;96029.38;4958353;28;20227;-83
2020/12/04 05:15:29;;;;;;;3.55;3.15;;;;;;;6.44;76.89;96029.72;4956462;28;20204;-83
2020/12/04 05:18:12;;;;;;;4.50;3.88;;;;;;;6.45;76.35;96024.19;4967658;28;20666;-83
2020/12/04 05:20:38;;;;;;;3.83;3.30;;;;;;;6.32;77.06;96022.91;4985762;28;20215;-82
2020/12/04 05:23:05;;;;;;;3.65;3.35;;;;;;;6.40;77.65;96028.31;4970254;28;20233;-82
2020/12/04 05:25:42;;;;;;;4.72;3.20;;;;;;;6.42;78.08;96016.50;4953939;28;20270;-83
2020/12/04 05:28:13;;;;;;;3.60;3.30;;;;;;;6.45;77.18;96018.03;4960102;28;20238;-82
2020/12/04 05:30:41;;;;;;;5.38;3.45;;;;;;;6.39;77.98;96021.31;4954159;28;20216;-82
2020/12/04 05:33:08;;;;;;;3.65;3.17;;;;;;;6.45;77.39;96015.38;4956753;28;20199;-82
2020/12/04 05:35:35;;;;;;;4.13;3.30;;;;;;;6.35;78.27;96025.25;4977120;28;20223;-82
2020/12/04 05:38:14;;;;;;;3.40;3.05;;;;;;;6.35;78.68;96018.09;4956407;28;20268;-80
2020/12/04 05:40:45;;;;;;;6.28;5.07;;;;;;;6.35;79.30;96019.91;4970909;28;20220;-83
2020/12/04 05:43:13;;;;;;;3.53;2.97;;;;;;;6.38;78.21;96023.13;4958228;28;20232;-82
2020/12/04 05:45:40;;;;;;;4.18;3.10;;;;;;;6.37;78.80;96026.78;4952771;28;20205;-82
2020/12/04 05:48:14;;;;;;;3.03;2.70;;;;;;;6.41;77.69;96027.31;4960951;28;20195;-82
2020/12/04 05:50:41;;;;;;;3.17;2.88;;;;;;;6.43;78.37;96033.38;4973812;28;20238;-82
2020/12/04 05:53:09;;;;;;;3.25;2.95;;;;;;;6.38;78.71;96024.97;4998737;28;20219;-84
2020/12/04 05:55:36;;;;;;;3.70;3.35;;;;;;;6.32;77.99;96029.06;4993595;28;20207;-81
2020/12/04 05:58:04;;;;;;;3.13;2.83;;;;;;;6.35;79.70;96028.78;4957862;28;20232;-82
2020/12/04 06:00:31;;;;;;;3.05;2.85;;;;;;;6.43;77.93;96036.03;4978432;28;20220;-81
2020/12/04 06:03:03;;;;;;;3.72;3.35;;;;;;;6.33;78.74;96028.09;4974298;28;20199;-81
2020/12/04 06:05:30;;;;;;;3.47;2.80;;;;;;;6.42;79.23;96029.00;4964739;28;20357;-81
2020/12/04 06:08:16;;;;;;;5.20;3.55;;;;;;;6.49;78.89;96028.25;4948790;28;20227;-82
2020/12/04 06:10:42;;;;;;;3.47;3.05;;;;;;;6.41;78.44;96030.00;4953728;28;20730;-82
2020/12/04 06:13:08;;;;;;;4.10;2.92;;;;;;;6.38;77.95;96035.63;4960905;28;20643;-80
2020/12/04 06:15:35;;;;;;;5.13;3.00;;;;;;;6.42;78.02;96029.00;4942194;28;20211;-80
2020/12/04 06:18:04;;;;;;;5.00;3.20;;;;;;;6.47;77.52;96034.72;4972029;28;20201;-81
2020/12/04 06:23:07;;;;;;;5.18;3.70;;;;;;;6.40;79.18;96034.50;4913830;28;20249;-80
2020/12/04 06:25:54;;;;;;;4.30;3.78;;;;;;;6.51;77.72;96041.44;5079067;23;20360;-81
2020/12/04 06:28:23;;;;;;;4.03;3.60;;;;;;;6.50;78.15;96029.09;4947902;28;20220;-82
2020/12/04 06:31:11;;;;;;;4.50;3.67;;;;;;;6.48;77.66;96039.91;4961792;29;20287;-82
2020/12/04 06:33:49;;;;;;;4.93;2.97;;;;;;;6.32;78.75;96036.25;4962422;28;20584;-81
2020/12/04 06:36:31;;;;;;;4.03;3.63;;;;;;;6.35;79.41;96039.44;4960550;28;20204;-80
2020/12/04 06:38:58;;;;;;;5.95;4.07;;;;;;;6.30;80.23;96044.38;4950561;28;20235;-81
2020/12/04 06:41:35;;;;;;;3.90;3.05;;;;;;;6.49;78.25;96043.41;4955133;28;20224;-80
2020/12/04 06:44:32;;;;;;;3.85;3.35;;;;;;;6.50;78.27;96055.78;4934180;29;20220;-80
2020/12/04 06:47:12;;;;;;;4.22;3.70;;;;;;;6.54;76.63;96057.16;4937719;28;20271;-82
2020/12/04 06:49:40;;;;;;;7.22;4.32;;;;;;;6.51;77.57;96054.81;4938296;28;20231;-81
2020/12/04 06:52:14;;;;;;;4.35;3.95;;;;;;;6.50;77.59;96050.47;4937715;29;20718;-80
2020/12/04 06:54:45;;;;;;;6.05;3.35;;;;;;;6.55;77.91;96059.69;4936608;28;20232;-81
2020/12/04 06:57:12;;;;;;;4.05;3.45;;;;;;;6.49;77.01;96064.75;4942435;29;20208;-80
2020/12/04 06:59:40;;;;;;;4.65;3.15;;;;;;;6.43;78.08;96068.88;4969276;28;20216;-80
2020/12/04 07:02:14;;;;;;;4.57;4.18;;;;;;;6.38;79.17;96070.31;4956632;28;20553;-80
2020/12/04 07:04:46;;;;;;;4.07;3.47;;;;;;;6.47;79.14;96072.94;4956633;28;20221;-81
2020/12/04 07:07:13;;;;;;;3.90;3.50;;;;;;;6.54;79.04;96081.16;4948390;28;20235;-82
2020/12/04 07:09:41;;;;;;;5.65;3.58;;;;;;;6.29;80.44;96076.53;4941933;28;20231;-81
2020/12/04 07:12:13;;;;;;;4.25;3.55;;;;;;;6.40;79.85;96074.53;4940034;29;20264;-83
2020/12/04 07:14:40;;;;;;;4.03;3.63;;;;;;;6.59;78.23;96081.56;4938529;28;20236;-82
2020/12/04 07:17:09;;;;;;;5.80;3.50;;;;;;;6.58;78.97;96085.22;4957582;28;20275;-81
2020/12/04 07:19:35;;;;;;;3.45;3.15;;;;;;;6.50;80.13;96087.81;4939275;28;20228;-81
2020/12/04 07:22:02;;;;;;;4.95;3.55;;;;;;;6.52;80.15;96091.16;4954684;28;20236;-81
2020/12/04 07:24:28;;;;;;;3.30;3.00;;;;;;;6.36;80.88;96086.47;4956434;28;20199;-80
2020/12/04 07:26:59;;;;;;;4.22;3.63;;;;;;;6.34;80.80;96076.94;4967163;28;20204;-81
2020/12/04 07:29:25;;;;;;;5.00;3.85;;;;;;;6.23;80.88;96079.78;4952420;28;20247;-81
2020/12/04 07:31:53;;;;;;;4.03;3.70;;;;;;;6.14;81.35;96078.88;4955920;28;20283;-81
2020/12/04 07:34:23;;;;;;;4.35;3.05;;;;;;;6.12;82.39;96088.00;4953508;28;20232;-81
2020/12/04 07:36:55;;;;;;;4.25;3.22;;;;;;;6.32;82.14;96089.59;4948259;28;20236;-81
2020/12/04 07:39:23;;;;;;;4.00;3.60;;;;;;;6.23;82.16;96091.31;4973498;28;20232;-82
2020/12/04 07:41:52;;;;;;;4.70;3.50;;;;;;;6.31;82.08;96086.06;4956870;29;20232;-82
2020/12/04 07:44:26;;;;;;;3.92;3.42;;;;;;;6.65;81.01;96086.31;4950260;28;20227;-82
2020/12/04 07:47:18;;;;;;;4.32;3.45;;;;;;;6.56;81.07;96088.03;4950364;28;20238;-80
2020/12/04 07:49:56;;;;;;;4.25;3.53;;;;;;;6.41;81.48;96094.03;4973122;28;20234;-80
2020/12/04 07:52:28;;;;;;;6.32;4.13;;;;;;;6.68;80.08;96089.50;4963132;28;20218;-80
2020/12/04 07:54:57;;;;;;;4.78;3.55;;;;;;;6.55;81.30;96097.03;4966701;28;20230;-81
2020/12/04 07:57:31;;;;;;;3.13;2.83;;;;;;;6.56;81.72;96082.69;4958439;28;20207;-81
2020/12/04 07:59:58;;;;;;;3.08;2.72;;;;;;;6.69;80.01;96088.53;4951491;29;20311;-81
2020/12/04 08:02:27;;;;;;;5.40;3.28;;;;;;;6.65;80.87;96091.66;4964207;28;20223;-81
2020/12/04 08:04:55;;;;;;;3.78;3.13;;;;;;;6.57;80.38;96092.38;4952506;28;20232;-81
2020/12/04 08:07:27;;;;;;;3.80;3.50;;;;;;;6.59;80.78;96089.56;4943546;28;20239;-81
2020/12/04 08:09:54;;;;;;;4.20;2.85;;;;;;;6.66;79.61;96088.84;4963229;28;20232;-81
2020/12/04 08:12:26;;;;;;;3.03;2.70;;;;;;;6.69;79.81;96083.19;4944124;29;20204;-81
2020/12/04 08:14:56;;;;;;;3.55;3.20;;;;;;;7.06;77.66;96085.72;4967565;28;20227;-80
2020/12/04 08:17:24;;;;;;;3.58;3.03;;;;;;;6.86;78.78;96086.84;4950369;28;20283;-79
2020/12/04 08:19:53;;;;;;;2.80;2.50;;;;;;;7.04;78.37;96093.91;4962049;28;20232;-80
2020/12/04 08:22:27;;;;;;;2.50;2.30;;;;;;;6.99;77.67;96090.84;4944022;29;20299;-80
2020/12/04 08:25:10;;;;;;;3.30;2.90;;;;;;;7.15;76.77;96087.50;4962974;28;20235;-80
2020/12/04 08:27:43;;;;;;;2.88;2.63;;;;;;;7.14;77.24;96085.81;4962264;28;20207;-80
2020/12/04 08:30:20;;;;;;;3.67;2.60;;;;;;;7.46;75.78;96089.56;4949572;29;20211;-80
2020/12/04 08:33:01;;;;;;;5.38;2.47;;;;;;;7.40;74.96;96090.19;4965032;28;20309;-81
2020/12/04 08:35:36;;;;;;;2.63;2.42;;;;;;;7.31;74.55;96101.81;4964679;28;20323;-80
2020/12/04 08:38:16;;;;;;;5.10;2.45;;;;;;;7.55;74.29;96103.84;4964056;28;20226;-81
2020/12/04 08:40:48;;;;;;;3.72;3.30;;;;;;;7.59;74.31;96115.94;4960651;29;20231;-81
2020/12/04 08:43:16;;;;;;;2.65;2.45;;;;;;;7.56;74.45;96116.22;4963911;28;20227;-80
2020/12/04 08:45:45;;;;;;;4.72;2.53;;;;;;;7.58;74.70;96125.75;4954831;28;20220;-80
2020/12/04 08:48:13;;;;;;;4.20;3.40;;;;;;;7.66;74.02;96119.66;4954195;29;20199;-80
2020/12/04 08:50:43;;;;;;;2.85;2.65;;;;;;;7.60;74.02;96122.94;4977595;28;20235;-80
2020/12/04 08:53:12;;;;;;;2.10;1.90;;;;;;;7.74;72.85;96125.06;4945536;28;20212;-79
2020/12/04 08:55:38;;;;;;;4.85;4.40;;;;;;;7.74;73.17;96130.41;4962226;28;20227;-80
2020/12/04 08:58:04;;;;;;;2.45;2.25;;;;;;;7.61;74.85;96127.28;4960719;28;20227;-80
2020/12/04 09:00:32;;;;;;;5.85;3.08;;;;;;;7.67;74.96;96121.31;4964023;28;20227;-81
2020/12/04 09:02:59;;;;;;;3.35;2.00;;;;;;;7.72;74.26;96117.19;4954196;29;20264;-81
2020/12/04 09:05:26;;;;;;;2.42;2.22;;;;;;;7.75;74.55;96126.72;4956631;28;20227;-81
2020/12/04 09:07:52;;;;;;;2.20;2.00;;;;;;;7.72;75.07;96127.06;4967088;28;20247;-81
2020/12/04 09:10:19;;;;;;;2.88;1.80;;;;;;;7.65;75.60;96134.03;4971382;28;20471;-81
2020/12/04 09:12:50;;;;;;;2.20;1.85;;;;;;;7.80;74.79;96130.63;4975594;28;20238;-82
2020/12/04 09:15:18;;;;;;;5.50;2.08;;;;;;;7.85;75.61;96135.50;4971922;29;20208;-82
2020/12/04 09:17:45;;;;;;;3.50;3.20;;;;;;;8.01;75.92;96139.13;4970069;28;20220;-83
2020/12/04 09:20:13;;;;;;;2.58;2.38;;;;;;;8.07;73.94;96134.97;4971752;28;20231;-82
2020/12/04 09:22:40;;;;;;;3.10;2.70;;;;;;;8.02;73.40;96138.13;4970116;28;20235;-83
2020/12/04 09:25:08;;;;;;;7.60;5.65;;;;;;;8.07;73.40;96127.81;4967842;28;20267;-82
2020/12/04 09:27:36;;;;;;;3.50;2.80;;;;;;;8.02;73.36;96129.25;4966676;28;20311;-81
2020/12/04 09:30:03;;;;;;;4.07;3.35;;;;;;;8.00;74.11;96137.47;4956670;29;20220;-79
2020/12/04 09:32:30;;;;;;;2.53;2.30;;;;;;;8.21;72.65;96134.41;4948859;28;20313;-80
2020/12/04 09:34:57;;;;;;;2.53;2.10;;;;;;;8.13;71.59;96132.53;4967050;28;20255;-81
2020/12/04 09:37:26;;;;;;;2.33;2.13;;;;;;;8.07;72.30;96133.16;4979611;28;20258;-80
2020/12/04 09:40:07;;;;;;;2.80;2.55;;;;;;;7.99;73.21;96141.13;4979077;28;20228;-80
2020/12/04 09:42:34;;;;;;;3.67;2.13;;;;;;;8.16;72.29;96129.50;4967241;28;20205;-80
2020/12/04 09:45:00;;;;;;;2.90;2.70;;;;;;;8.01;72.92;96130.25;4947129;29;20212;-80
2020/12/04 09:47:30;;;;;;;3.40;2.17;;;;;;;7.96;73.86;96122.72;4952938;28;20224;-81
2020/12/04 09:49:57;;;;;;;2.75;2.50;;;;;;;7.93;73.53;96130.22;4962473;28;20238;-80
2020/12/04 09:52:24;;;;;;;3.78;2.60;;;;;;;7.97;74.04;96131.59;4951745;28;20224;-81
2020/12/04 09:54:50;;;;;;;4.40;3.10;;;;;;;8.06;73.62;96125.28;4948396;28;20879;-82
2020/12/04 09:57:17;;;;;;;4.75;3.85;;;;;;;8.10;74.08;96121.31;4971069;29;20204;-82
2020/12/04 09:59:44;;;;;;;4.43;3.72;;;;;;;8.21;73.26;96129.06;4962083;28;20204;-81
2020/12/04 10:02:11;;;;;;;4.00;3.17;;;;;;;8.25;72.75;96130.44;4983365;28;20285;-81
2020/12/04 10:04:40;;;;;;;2.58;2.38;;;;;;;8.61;71.30;96129.28;4967558;28;20228;-80
2020/12/04 10:07:08;;;;;;;3.22;2.58;;;;;;;8.86;71.40;96139.09;4950539;29;20247;-80
2020/12/04 10:09:36;;;;;;;5.30;4.07;;;;;;;8.68;71.66;96146.41;4952810;28;20249;-80
2020/12/04 10:12:03;;;;;;;4.10;3.30;;;;;;;8.51;72.14;96148.16;4981907;28;20214;-80
2020/12/04 10:14:29;;;;;;;2.72;2.53;;;;;;;8.68;71.29;96139.19;4960712;28;20228;-82
2020/12/04 10:16:55;;;;;;;2.97;2.35;;;;;;;8.63;71.67;96133.50;4965011;28;20845;-81
2020/12/04 10:19:21;;;;;;;2.85;2.55;;;;;;;8.86;70.55;96131.06;4943993;28;20264;-81
2020/12/04 10:21:48;;;;;;;2.80;2.40;;;;;;;8.68;70.96;96120.44;4964151;28;20236;-79
2020/12/04 10:24:17;;;;;;;2.95;2.20;;;;;;;8.69;71.24;96121.28;4992336;28;20227;-80
2020/12/04 10:26:48;;;;;;;2.00;1.60;;;;;;;8.86;70.41;96125.72;4985807;28;20218;-81
2020/12/04 10:29:16;;;;;;;2.38;1.90;;;;;;;8.80;70.21;96137.06;4969083;28;20227;-80
2020/12/04 10:31:43;;;;;;;4.93;2.10;;;;;;;8.51;71.45;96137.44;4960013;28;20232;-80
2020/12/04 10:34:10;;;;;;;2.22;1.75;;;;;;;8.57;70.97;96126.09;4954188;28;20247;-81
2020/12/04 10:36:37;;;;;;;2.13;1.92;;;;;;;8.48;71.52;96126.22;4961527;28;20216;-81
2020/12/04 10:39:05;;;;;;;2.60;2.08;;;;;;;8.62;71.05;96120.25;4982018;28;20223;-81
2020/12/04 10:41:33;;;;;;;2.50;2.30;;;;;;;8.67;71.86;96118.75;4963187;28;20231;-80
2020/12/04 10:44:01;;;;;;;2.10;1.70;;;;;;;8.73;71.05;96114.56;4960821;28;20223;-78
2020/12/04 10:46:27;;;;;;;2.85;2.50;;;;;;;8.74;71.03;96127.00;4968642;28;20227;-87
2020/12/04 10:48:53;;;;;;;2.05;1.20;;;;;;;8.85;69.70;96129.34;4962434;28;20251;-81
2020/12/04 10:51:21;;;;;;;2.13;1.55;;;;;;;8.74;70.10;96125.13;4953135;29;20224;-79
2020/12/04 10:53:47;;;;;;;2.38;1.98;;;;;;;8.73;71.14;96136.84;4979846;28;20231;-80
2020/12/04 10:57:05;;;;;;;3.17;2.08;;;;;;;8.55;71.86;96133.44;4947560;28;20242;-80
2020/12/04 10:59:31;;;;;;;1.60;1.45;;;;;;;8.44;73.04;96131.06;4938488;29;20229;-79
2020/12/04 11:02:33;;;;;;;1.65;1.55;;;;;;;8.54;73.14;96133.63;4943254;28;20224;-80
2020/12/04 11:07:34;;;;;;;2.20;1.75;;;;;;;8.53;73.28;96132.75;4958283;28;20730;-81
2020/12/04 11:10:00;;;;;;;2.55;1.83;;;;;;;8.37;74.19;96134.53;4940448;28;20235;-79
2020/12/04 11:12:26;;;;;;;2.83;1.67;;;;;;;8.41;73.16;96151.94;4940150;28;20205;-80
2020/12/04 11:14:53;;;;;;;2.05;1.85;;;;;;;8.42;73.79;96148.28;4962691;29;20260;-79
2020/12/04 11:17:19;;;;;;;2.13;1.85;;;;;;;8.36;73.96;96148.91;4962566;28;20291;-80
2020/12/04 11:19:45;;;;;;;1.75;1.58;;;;;;;8.33;74.00;96149.22;4957481;28;20232;-80
2020/12/04 11:22:11;;;;;;;2.30;1.90;;;;;;;8.18;75.00;96153.44;4940845;28;20228;-79
2020/12/04 11:24:37;;;;;;;1.95;1.67;;;;;;;8.04;75.84;96156.72;4943908;28;20225;-79
2020/12/04 11:27:03;;;;;;;2.05;1.50;;;;;;;8.02;75.76;96148.84;4932139;29;20223;-80
2020/12/04 11:29:30;;;;;;;1.92;1.70;;;;;;;8.00;76.90;96147.31;4950162;28;20235;-80
2020/12/04 11:31:56;;;;;;;2.40;1.85;;;;;;;7.97;77.15;96153.81;4937888;28;20765;-80
2020/12/04 11:34:22;;;;;;;2.35;1.33;;;;;;;7.89;76.79;96144.88;4935867;28;21045;-82
2020/12/04 11:36:51;;;;;;;1.40;1.10;;;;;;;7.78;77.72;96137.13;4953025;28;20255;-81
2020/12/04 11:39:17;;;;;;;2.28;2.08;;;;;;;7.78;79.50;96137.13;4942358;29;20247;-82
2020/12/04 11:41:43;;;;;;;2.03;1.83;;;;;;;7.90;79.00;96131.34;4932114;28;20234;-82
2020/12/04 11:44:09;;;;;;;3.65;2.30;;;;;;;7.89;78.58;96139.53;4959123;28;20680;-81
2020/12/04 11:46:43;;;;;;;2.70;1.98;;;;;;;7.87;79.58;96130.84;4937582;28;20220;-81
2020/12/04 11:49:09;;;;;;;3.47;2.03;;;;;;;7.88;80.06;96128.00;4954246;28;20236;-80
2020/12/04 11:51:35;;;;;;;1.90;1.70;;;;;;;7.97;80.12;96131.59;4969216;28;20281;-80
2020/12/04 11:54:01;;;;;;;2.88;2.10;;;;;;;7.97;80.43;96136.94;4958726;29;20206;-81
2020/12/04 11:56:33;;;;;;;3.20;2.08;;;;;;;8.01;80.02;96135.59;4960325;28;20224;-81